IGO297E VOGO-VABB
Flight info
| Callsign | IGO297E |
|---|---|
| Flight time | 0h 43m |
| Altitude | 32000 |
| Route | GGO V51 OKILA R461 KABSO KETOR2A |
| Aircraft | A21N/M-SDE2E3FGHIRWXY/LB1 |
Departure
| Time | 2026-05-05 04:40 |
|---|---|
| Airport | Goa Dabolim International Airport (VOGO) |
Arrival
| Time | 2026-05-05 05:24 |
|---|---|
| Airport | Chhatrapati Shivaji Maharaj International Airport (VABB) |
| Time | Latitude | Longitude | Altitude | Speed | Heading |
|---|---|---|---|---|---|
| 2026-05-05 04:20 | 15.38436 | 73.83610 | 153 ft | 0 kts | 348° |
| 2026-05-05 04:31 | 15.38422 | 73.83613 | 153 ft | 2 kts | 348° |
| 2026-05-05 04:31 | 15.38408 | 73.83616 | 154 ft | 2 kts | 348° |
| 2026-05-05 04:31 | 15.38393 | 73.83619 | 154 ft | 2 kts | 348° |
| 2026-05-05 04:31 | 15.38379 | 73.83623 | 155 ft | 2 kts | 348° |
| 2026-05-05 04:32 | 15.38363 | 73.83622 | 155 ft | 2 kts | 17° |
| 2026-05-05 04:32 | 15.38350 | 73.83616 | 155 ft | 2 kts | 38° |
| 2026-05-05 04:32 | 15.38340 | 73.83604 | 155 ft | 2 kts | 61° |
| 2026-05-05 04:32 | 15.38336 | 73.83594 | 155 ft | 0 kts | 77° |
| 2026-05-05 04:33 | 15.38335 | 73.83587 | 155 ft | 0 kts | 79° |
| 2026-05-05 04:34 | 15.38335 | 73.83588 | 155 ft | 0 kts | 79° |
| 2026-05-05 04:35 | 15.38339 | 73.83609 | 155 ft | 5 kts | 79° |
| 2026-05-05 04:35 | 15.38345 | 73.83643 | 156 ft | 4 kts | 85° |
| 2026-05-05 04:35 | 15.38338 | 73.83669 | 156 ft | 3 kts | 123° |
| 2026-05-05 04:36 | 15.38313 | 73.83686 | 157 ft | 6 kts | 161° |
| 2026-05-05 04:36 | 15.38263 | 73.83697 | 159 ft | 8 kts | 169° |
| 2026-05-05 04:36 | 15.38200 | 73.83710 | 162 ft | 8 kts | 168° |
| 2026-05-05 04:36 | 15.38183 | 73.83759 | 162 ft | 9 kts | 91° |
| 2026-05-05 04:37 | 15.38196 | 73.83838 | 162 ft | 12 kts | 82° |
| 2026-05-05 04:37 | 15.38208 | 73.83929 | 164 ft | 13 kts | 80° |
| 2026-05-05 04:37 | 15.38227 | 73.84028 | 167 ft | 13 kts | 78° |
| 2026-05-05 04:37 | 15.38245 | 73.84119 | 171 ft | 12 kts | 78° |
| 2026-05-05 04:38 | 15.38265 | 73.84221 | 175 ft | 15 kts | 79° |
| 2026-05-05 04:38 | 15.38286 | 73.84333 | 179 ft | 14 kts | 77° |
| 2026-05-05 04:38 | 15.38308 | 73.84440 | 184 ft | 14 kts | 78° |
| 2026-05-05 04:38 | 15.38327 | 73.84533 | 187 ft | 12 kts | 78° |
| 2026-05-05 04:39 | 15.38347 | 73.84625 | 190 ft | 13 kts | 69° |
| 2026-05-05 04:39 | 15.38418 | 73.84703 | 187 ft | 17 kts | 60° |
| 2026-05-05 04:39 | 15.38402 | 73.84802 | 187 ft | 14 kts | 192° |
| 2026-05-05 04:39 | 15.38358 | 73.84724 | 190 ft | 13 kts | 263° |
| 2026-05-05 04:40 | 15.38303 | 73.84419 | 183 ft | 80 kts | 258° |
| 2026-05-05 04:40 | 15.38143 | 73.83617 | 163 ft | 144 kts | 258° |
| 2026-05-05 04:40 | 15.37913 | 73.82428 | 295 ft | 181 kts | 259° |
| 2026-05-05 04:40 | 15.37678 | 73.81150 | 897 ft | 183 kts | 259° |
| 2026-05-05 04:41 | 15.37447 | 73.79878 | 1543 ft | 181 kts | 259° |
| 2026-05-05 04:41 | 15.37202 | 73.78599 | 2080 ft | 186 kts | 259° |
| 2026-05-05 04:41 | 15.36935 | 73.77224 | 2444 ft | 202 kts | 259° |
| 2026-05-05 04:41 | 15.36645 | 73.75742 | 2805 ft | 220 kts | 259° |
| 2026-05-05 04:42 | 15.36327 | 73.74120 | 3109 ft | 242 kts | 259° |
| 2026-05-05 04:42 | 15.35977 | 73.72334 | 3537 ft | 261 kts | 259° |
| 2026-05-05 04:42 | 15.35611 | 73.70471 | 4184 ft | 270 kts | 259° |
| 2026-05-05 04:42 | 15.35237 | 73.68566 | 4997 ft | 273 kts | 259° |
| 2026-05-05 04:43 | 15.34859 | 73.66637 | 5792 ft | 276 kts | 259° |
| 2026-05-05 04:43 | 15.34477 | 73.64683 | 6566 ft | 279 kts | 259° |
| 2026-05-05 04:43 | 15.34208 | 73.62709 | 7304 ft | 282 kts | 273° |
| 2026-05-05 04:43 | 15.34697 | 73.60770 | 8026 ft | 284 kts | 300° |
| 2026-05-05 04:44 | 15.35978 | 73.59246 | 8760 ft | 286 kts | 325° |
| 2026-05-05 04:44 | 15.37662 | 73.58131 | 9517 ft | 289 kts | 329° |
| 2026-05-05 04:44 | 15.39381 | 73.57067 | 10213 ft | 293 kts | 330° |
| 2026-05-05 04:44 | 15.41160 | 73.55964 | 10645 ft | 307 kts | 329° |
| 2026-05-05 04:45 | 15.43053 | 73.54776 | 10961 ft | 325 kts | 329° |
| 2026-05-05 04:45 | 15.45023 | 73.53528 | 11309 ft | 341 kts | 329° |
| 2026-05-05 04:45 | 15.47047 | 73.52237 | 11915 ft | 347 kts | 329° |
| 2026-05-05 04:45 | 15.49112 | 73.50918 | 12628 ft | 350 kts | 329° |
| 2026-05-05 04:46 | 15.51181 | 73.49595 | 13312 ft | 353 kts | 329° |
| 2026-05-05 04:46 | 15.53249 | 73.48271 | 13971 ft | 357 kts | 329° |
| 2026-05-05 04:46 | 15.55378 | 73.46909 | 14634 ft | 360 kts | 329° |
| 2026-05-05 04:46 | 15.57520 | 73.45561 | 15280 ft | 364 kts | 332° |
| 2026-05-05 04:47 | 15.59766 | 73.44408 | 15910 ft | 366 kts | 338° |
| 2026-05-05 04:47 | 15.62156 | 73.43518 | 16535 ft | 369 kts | 344° |
| 2026-05-05 04:47 | 15.64658 | 73.42807 | 17164 ft | 372 kts | 346° |
| 2026-05-05 04:47 | 15.67169 | 73.42138 | 17772 ft | 376 kts | 346° |
| 2026-05-05 04:48 | 15.69700 | 73.41468 | 18369 ft | 379 kts | 346° |
| 2026-05-05 04:48 | 15.72262 | 73.40787 | 18959 ft | 383 kts | 346° |
| 2026-05-05 04:48 | 15.74842 | 73.40096 | 19536 ft | 386 kts | 346° |
| 2026-05-05 04:48 | 15.77422 | 73.39368 | 20088 ft | 390 kts | 342° |
| 2026-05-05 04:49 | 15.79911 | 73.38283 | 20632 ft | 393 kts | 335° |
| 2026-05-05 04:49 | 15.82379 | 73.37021 | 21175 ft | 397 kts | 334° |
| 2026-05-05 04:49 | 15.84847 | 73.35743 | 21693 ft | 400 kts | 334° |
| 2026-05-05 04:49 | 15.87347 | 73.34473 | 22195 ft | 403 kts | 336° |
| 2026-05-05 04:50 | 15.90000 | 73.33659 | 22631 ft | 405 kts | 354° |
| 2026-05-05 04:50 | 15.92815 | 73.33453 | 23160 ft | 406 kts | 359° |
| 2026-05-05 04:50 | 15.95647 | 73.33372 | 23625 ft | 409 kts | 359° |
| 2026-05-05 04:50 | 15.98489 | 73.33283 | 24067 ft | 412 kts | 359° |
| 2026-05-05 04:51 | 16.01345 | 73.33169 | 24502 ft | 415 kts | 358° |
| 2026-05-05 04:51 | 16.04223 | 73.33031 | 24928 ft | 418 kts | 358° |
| 2026-05-05 04:51 | 16.07134 | 73.32877 | 25341 ft | 420 kts | 358° |
| 2026-05-05 04:51 | 16.10057 | 73.32712 | 25741 ft | 423 kts | 358° |
| 2026-05-05 04:52 | 16.12958 | 73.32542 | 26125 ft | 425 kts | 358° |
| 2026-05-05 04:52 | 16.15916 | 73.32366 | 26502 ft | 428 kts | 358° |
| 2026-05-05 04:52 | 16.18890 | 73.32187 | 26863 ft | 430 kts | 358° |
| 2026-05-05 04:52 | 16.21864 | 73.32006 | 27210 ft | 433 kts | 358° |
| 2026-05-05 04:53 | 16.24866 | 73.31823 | 27550 ft | 435 kts | 358° |
| 2026-05-05 04:53 | 16.27873 | 73.31639 | 27883 ft | 437 kts | 358° |
| 2026-05-05 04:53 | 16.30900 | 73.31454 | 28207 ft | 439 kts | 358° |
| 2026-05-05 04:53 | 16.33960 | 73.31267 | 28524 ft | 442 kts | 358° |
| 2026-05-05 04:54 | 16.37030 | 73.31078 | 28833 ft | 444 kts | 358° |
| 2026-05-05 04:54 | 16.40113 | 73.30888 | 29136 ft | 446 kts | 358° |
| 2026-05-05 04:54 | 16.43164 | 73.30701 | 29519 ft | 445 kts | 358° |
| 2026-05-05 04:54 | 16.46246 | 73.30512 | 29959 ft | 443 kts | 358° |
| 2026-05-05 04:55 | 16.49317 | 73.30322 | 30369 ft | 442 kts | 358° |
| 2026-05-05 04:55 | 16.52351 | 73.30136 | 30699 ft | 442 kts | 358° |
| 2026-05-05 04:55 | 16.55432 | 73.29947 | 30978 ft | 444 kts | 358° |
| 2026-05-05 04:55 | 16.58506 | 73.29758 | 31250 ft | 445 kts | 358° |
| 2026-05-05 04:56 | 16.61584 | 73.29569 | 31522 ft | 446 kts | 358° |
| 2026-05-05 04:56 | 16.64653 | 73.29381 | 31788 ft | 447 kts | 358° |
| 2026-05-05 04:56 | 16.67767 | 73.29189 | 31997 ft | 448 kts | 358° |
| 2026-05-05 04:57 | 16.73973 | 73.28805 | 32016 ft | 449 kts | 357° |
| 2026-05-05 04:57 | 16.80209 | 73.28411 | 32018 ft | 449 kts | 357° |
| 2026-05-05 04:58 | 16.86410 | 73.28023 | 32019 ft | 449 kts | 357° |
| 2026-05-05 04:58 | 16.92596 | 73.27638 | 32019 ft | 449 kts | 357° |
| 2026-05-05 04:59 | 16.98814 | 73.27254 | 32018 ft | 449 kts | 358° |
| 2026-05-05 04:59 | 17.05064 | 73.26865 | 32018 ft | 451 kts | 358° |
| 2026-05-05 05:00 | 17.11345 | 73.26477 | 32017 ft | 455 kts | 358° |
| 2026-05-05 05:00 | 17.17679 | 73.26086 | 32018 ft | 457 kts | 358° |
| 2026-05-05 05:01 | 17.23988 | 73.25697 | 32019 ft | 457 kts | 358° |
| 2026-05-05 05:01 | 17.30320 | 73.25305 | 32019 ft | 457 kts | 358° |
| 2026-05-05 05:02 | 17.36661 | 73.24912 | 31747 ft | 460 kts | 358° |
| 2026-05-05 05:02 | 17.39823 | 73.24716 | 31025 ft | 462 kts | 358° |
| 2026-05-05 05:02 | 17.43009 | 73.24519 | 30334 ft | 463 kts | 358° |
| 2026-05-05 05:02 | 17.46218 | 73.24320 | 29646 ft | 462 kts | 358° |
| 2026-05-05 05:03 | 17.49405 | 73.24122 | 28953 ft | 462 kts | 358° |
| 2026-05-05 05:03 | 17.52615 | 73.23922 | 28318 ft | 460 kts | 358° |
| 2026-05-05 05:03 | 17.55773 | 73.23725 | 27878 ft | 454 kts | 358° |
| 2026-05-05 05:03 | 17.58906 | 73.23531 | 27424 ft | 448 kts | 358° |
| 2026-05-05 05:04 | 17.61968 | 73.23340 | 26971 ft | 443 kts | 358° |
| 2026-05-05 05:04 | 17.65006 | 73.23151 | 26514 ft | 438 kts | 358° |
| 2026-05-05 05:04 | 17.68022 | 73.22964 | 26052 ft | 433 kts | 358° |
| 2026-05-05 05:04 | 17.70991 | 73.22779 | 25589 ft | 429 kts | 358° |
| 2026-05-05 05:05 | 17.73939 | 73.22596 | 25124 ft | 426 kts | 358° |
| 2026-05-05 05:05 | 17.76895 | 73.22412 | 24643 ft | 422 kts | 358° |
| 2026-05-05 05:05 | 17.79776 | 73.22234 | 24162 ft | 419 kts | 358° |
| 2026-05-05 05:05 | 17.82690 | 73.22052 | 23678 ft | 417 kts | 358° |
| 2026-05-05 05:06 | 17.85534 | 73.21875 | 23211 ft | 414 kts | 358° |
| 2026-05-05 05:06 | 17.88403 | 73.21697 | 22743 ft | 411 kts | 358° |
| 2026-05-05 05:06 | 17.91248 | 73.21519 | 22280 ft | 408 kts | 358° |
| 2026-05-05 05:06 | 17.94041 | 73.21345 | 21827 ft | 405 kts | 358° |
| 2026-05-05 05:07 | 17.96846 | 73.21170 | 21370 ft | 401 kts | 358° |
| 2026-05-05 05:07 | 17.99610 | 73.20998 | 20920 ft | 398 kts | 358° |
| 2026-05-05 05:07 | 18.02347 | 73.20828 | 20472 ft | 395 kts | 358° |
| 2026-05-05 05:07 | 18.05050 | 73.20659 | 20029 ft | 392 kts | 358° |
| 2026-05-05 05:08 | 18.07786 | 73.20488 | 19576 ft | 390 kts | 358° |
| 2026-05-05 05:08 | 18.10463 | 73.20321 | 19132 ft | 387 kts | 358° |
| 2026-05-05 05:08 | 18.13144 | 73.20153 | 18684 ft | 384 kts | 358° |
| 2026-05-05 05:08 | 18.15823 | 73.19986 | 18235 ft | 381 kts | 358° |
| 2026-05-05 05:09 | 18.18483 | 73.19820 | 17785 ft | 378 kts | 358° |
| 2026-05-05 05:09 | 18.21109 | 73.19656 | 17339 ft | 376 kts | 358° |
| 2026-05-05 05:09 | 18.23698 | 73.19493 | 16896 ft | 373 kts | 358° |
| 2026-05-05 05:09 | 18.26260 | 73.19333 | 16456 ft | 371 kts | 358° |
| 2026-05-05 05:10 | 18.28810 | 73.19173 | 16015 ft | 368 kts | 358° |
| 2026-05-05 05:10 | 18.31358 | 73.19014 | 15573 ft | 366 kts | 358° |
| 2026-05-05 05:10 | 18.33882 | 73.18856 | 15134 ft | 363 kts | 358° |
| 2026-05-05 05:10 | 18.36397 | 73.18699 | 14693 ft | 361 kts | 358° |
| 2026-05-05 05:11 | 18.38884 | 73.18542 | 14256 ft | 358 kts | 358° |
| 2026-05-05 05:11 | 18.41366 | 73.18387 | 13817 ft | 356 kts | 357° |
| 2026-05-05 05:11 | 18.43821 | 73.18233 | 13383 ft | 354 kts | 357° |
| 2026-05-05 05:11 | 18.46235 | 73.18082 | 12952 ft | 352 kts | 357° |
| 2026-05-05 05:12 | 18.48661 | 73.17930 | 12519 ft | 349 kts | 357° |
| 2026-05-05 05:12 | 18.51066 | 73.17779 | 12087 ft | 347 kts | 357° |
| 2026-05-05 05:12 | 18.53466 | 73.17628 | 11654 ft | 345 kts | 357° |
| 2026-05-05 05:12 | 18.55868 | 73.17477 | 11213 ft | 343 kts | 357° |
| 2026-05-05 05:13 | 18.58215 | 73.17330 | 10780 ft | 342 kts | 357° |
| 2026-05-05 05:13 | 18.60589 | 73.17181 | 10374 ft | 338 kts | 357° |
| 2026-05-05 05:13 | 18.62880 | 73.17036 | 10225 ft | 326 kts | 357° |
| 2026-05-05 05:13 | 18.65103 | 73.16897 | 10089 ft | 314 kts | 357° |
| 2026-05-05 05:14 | 18.67233 | 73.16763 | 9954 ft | 302 kts | 357° |
| 2026-05-05 05:14 | 18.69284 | 73.16634 | 9814 ft | 291 kts | 357° |
| 2026-05-05 05:14 | 18.71306 | 73.16508 | 9442 ft | 291 kts | 357° |
| 2026-05-05 05:14 | 18.73308 | 73.16383 | 9078 ft | 289 kts | 357° |
| 2026-05-05 05:15 | 18.75292 | 73.16259 | 8726 ft | 288 kts | 357° |
| 2026-05-05 05:15 | 18.77285 | 73.16138 | 8379 ft | 290 kts | 358° |
| 2026-05-05 05:15 | 18.79307 | 73.16024 | 8014 ft | 290 kts | 358° |
| 2026-05-05 05:15 | 18.81322 | 73.15913 | 7592 ft | 290 kts | 358° |
| 2026-05-05 05:16 | 18.83335 | 73.15804 | 7188 ft | 289 kts | 358° |
| 2026-05-05 05:16 | 18.85305 | 73.15700 | 6843 ft | 286 kts | 358° |
| 2026-05-05 05:16 | 18.87293 | 73.15596 | 6543 ft | 286 kts | 358° |
| 2026-05-05 05:16 | 18.89274 | 73.15494 | 6243 ft | 286 kts | 358° |
| 2026-05-05 05:17 | 18.91244 | 73.15395 | 5975 ft | 283 kts | 358° |
| 2026-05-05 05:17 | 18.93211 | 73.15297 | 5926 ft | 282 kts | 358° |
| 2026-05-05 05:17 | 18.95170 | 73.15201 | 5680 ft | 280 kts | 358° |
| 2026-05-05 05:17 | 18.97121 | 73.15107 | 5239 ft | 281 kts | 358° |
| 2026-05-05 05:18 | 18.99039 | 73.15018 | 4848 ft | 280 kts | 358° |
| 2026-05-05 05:18 | 19.00981 | 73.14928 | 4621 ft | 272 kts | 358° |
| 2026-05-05 05:18 | 19.02835 | 73.14841 | 4448 ft | 263 kts | 355° |
| 2026-05-05 05:18 | 19.04560 | 73.14352 | 4233 ft | 255 kts | 329° |
| 2026-05-05 05:19 | 19.05832 | 73.13126 | 3984 ft | 249 kts | 306° |
| 2026-05-05 05:19 | 19.06794 | 73.11596 | 3935 ft | 251 kts | 301° |
| 2026-05-05 05:19 | 19.07685 | 73.10023 | 3932 ft | 251 kts | 300° |
| 2026-05-05 05:19 | 19.08556 | 73.08429 | 3910 ft | 243 kts | 295° |
| 2026-05-05 05:20 | 19.09052 | 73.06776 | 3683 ft | 236 kts | 277° |
| 2026-05-05 05:20 | 19.09167 | 73.05019 | 3229 ft | 240 kts | 269° |
| 2026-05-05 05:20 | 19.09136 | 73.03260 | 2896 ft | 239 kts | 267° |
| 2026-05-05 05:20 | 19.09085 | 73.01517 | 2579 ft | 234 kts | 267° |
| 2026-05-05 05:21 | 19.09050 | 72.99856 | 2270 ft | 225 kts | 268° |
| 2026-05-05 05:21 | 19.09027 | 72.98196 | 1979 ft | 223 kts | 268° |
| 2026-05-05 05:21 | 19.09008 | 72.96629 | 1779 ft | 207 kts | 268° |
| 2026-05-05 05:21 | 19.08989 | 72.95158 | 1507 ft | 193 kts | 268° |
| 2026-05-05 05:22 | 19.08971 | 72.93801 | 1221 ft | 177 kts | 267° |
| 2026-05-05 05:22 | 19.08953 | 72.92554 | 954 ft | 160 kts | 267° |
| 2026-05-05 05:22 | 19.08938 | 72.91419 | 697 ft | 150 kts | 267° |
| 2026-05-05 05:22 | 19.08922 | 72.90327 | 554 ft | 149 kts | 267° |
| 2026-05-05 05:23 | 19.08910 | 72.89223 | 365 ft | 149 kts | 267° |
| 2026-05-05 05:23 | 19.08894 | 72.88145 | 154 ft | 146 kts | 267° |
| 2026-05-05 05:23 | 19.08878 | 72.87085 | 34 ft | 134 kts | 267° |
| 2026-05-05 05:23 | 19.08861 | 72.86236 | 33 ft | 91 kts | 269° |
| 2026-05-05 05:24 | 19.08864 | 72.85747 | 27 ft | 42 kts | 279° |
| 2026-05-05 05:24 | 19.08925 | 72.85546 | 27 ft | 14 kts | 292° |
| 2026-05-05 05:24 | 19.08944 | 72.85506 | 27 ft | 4 kts | 305° |
| 2026-05-05 05:24 | 19.08966 | 72.85488 | 28 ft | 3 kts | 339° |
| 2026-05-05 05:25 | 19.08989 | 72.85487 | 28 ft | 2 kts | 13° |
| 2026-05-05 05:25 | 19.09004 | 72.85496 | 28 ft | 2 kts | 39° |
| 2026-05-05 05:25 | 19.09015 | 72.85512 | 29 ft | 3 kts | 65° |
| 2026-05-05 05:25 | 19.09023 | 72.85541 | 29 ft | 4 kts | 83° |
| 2026-05-05 05:26 | 19.09028 | 72.85577 | 29 ft | 5 kts | 70° |
| 2026-05-05 05:26 | 19.09059 | 72.85599 | 30 ft | 5 kts | 14° |
| 2026-05-05 05:26 | 19.09089 | 72.85579 | 30 ft | 6 kts | 284° |
| 2026-05-05 05:26 | 19.09095 | 72.85538 | 30 ft | 4 kts | 303° |
| 2026-05-05 05:27 | 19.09119 | 72.85526 | 31 ft | 3 kts | 359° |
| 2026-05-05 05:27 | 19.09139 | 72.85526 | 31 ft | 2 kts | 0° |
| 2026-05-05 05:27 | 19.09144 | 72.85526 | 31 ft | 0 kts | 360° |